Terminal Aerodrome Forecast
Issued by NWS Duluth, MN

Home | Current Version | Previous Version | Text Only | Print | Product List | Glossary On
Versions: 1 2 3 4 5 6 7 8 9 10 11 12 13 14 15 16 17 18 19 20 21 22 23 24 25
532
FTUS43 KDLH 232334
TAFDLH
TAF
KDLH 232334Z 2400/2424 08005KT P6SM FEW010
     FM240400 07004KT 3SM BR SCT006
     FM240700 08004KT 1/2SM FG BKN004
     FM241400 16004KT P6SM SCT005
     FM241600 19008KT P6SM FEW050=

USA.gov is the U.S. government's official web portal to all federal, state and local government web resources and services.